DAL1622 KATL-KJFK
Flight info
| Callsign | DAL1622 |
|---|---|
| Flight time | N/A |
| Altitude | 35000 |
| Route | PHIIL3 HRTWL Q64 SAWED Q108 SIE CAMRN5 |
| Aircraft | B753/M-SDE2E3FGHIJ3J4J7RWXY/LB1 |
Departure
| Time | 2026-05-04 09:43 |
|---|---|
| Airport | Hartsfield Jackson Atlanta International Airport (KATL) |
Arrival
| Time | N/A |
|---|---|
| Airport | John F. Kennedy International Airport (KJFK) |
| Time | Latitude | Longitude | Altitude | Speed | Heading |
|---|---|---|---|---|---|
| 2026-05-04 09:43 | 33.50101 | -84.13081 | 18832 ft | 424 kts | 70° |
| 2026-05-04 09:43 | 33.50952 | -84.09711 | 19380 ft | 427 kts | 70° |
| 2026-05-04 09:43 | 33.51818 | -84.06274 | 19898 ft | 431 kts | 70° |
| 2026-05-04 09:43 | 33.52676 | -84.02871 | 20400 ft | 434 kts | 70° |
| 2026-05-04 09:44 | 33.53557 | -83.99368 | 20831 ft | 439 kts | 70° |
| 2026-05-04 09:44 | 33.54429 | -83.95896 | 21328 ft | 442 kts | 70° |
| 2026-05-04 09:44 | 33.55327 | -83.92317 | 21791 ft | 446 kts | 70° |
| 2026-05-04 09:46 | 33.63333 | -83.67818 | 24911 ft | 466 kts | 62° |
| 2026-05-04 09:46 | 33.64681 | -83.64256 | 25316 ft | 470 kts | 62° |
| 2026-05-04 09:46 | 33.66079 | -83.60736 | 25771 ft | 470 kts | 59° |
| 2026-05-04 09:47 | 33.67503 | -83.57278 | 26176 ft | 473 kts | 59° |
| 2026-05-04 09:47 | 33.68980 | -83.53676 | 26464 ft | 478 kts | 59° |
| 2026-05-04 09:49 | 33.79354 | -83.28223 | 29087 ft | 499 kts | 60° |
| 2026-05-04 09:49 | 33.80883 | -83.24455 | 29419 ft | 502 kts | 60° |
| 2026-05-04 09:49 | 33.82403 | -83.20704 | 29793 ft | 503 kts | 60° |
| 2026-05-04 09:51 | 33.91656 | -82.97785 | 31888 ft | 511 kts | 59° |
| 2026-05-04 09:51 | 33.93214 | -82.93908 | 32359 ft | 508 kts | 59° |
| 2026-05-04 09:51 | 33.94752 | -82.90083 | 32634 ft | 510 kts | 59° |
| 2026-05-04 09:51 | 33.96273 | -82.86289 | 33029 ft | 509 kts | 59° |
| 2026-05-04 09:52 | 33.97817 | -82.82435 | 33421 ft | 507 kts | 59° |
| 2026-05-04 09:52 | 33.99332 | -82.78651 | 33752 ft | 507 kts | 59° |
| 2026-05-04 09:52 | 34.00859 | -82.74832 | 34081 ft | 506 kts | 59° |
| 2026-05-04 09:52 | 34.02378 | -82.71029 | 34341 ft | 507 kts | 59° |
| 2026-05-04 09:53 | 34.03901 | -82.67214 | 34573 ft | 507 kts | 59° |
| 2026-05-04 09:53 | 34.05431 | -82.63376 | 34820 ft | 507 kts | 59° |
| 2026-05-04 09:53 | 34.06959 | -82.59537 | 35081 ft | 504 kts | 59° |
| 2026-05-04 09:54 | 34.09980 | -82.51936 | 35109 ft | 504 kts | 59° |
| 2026-05-04 09:54 | 34.12925 | -82.44508 | 35111 ft | 504 kts | 59° |
| 2026-05-04 09:55 | 34.15910 | -82.36964 | 35113 ft | 505 kts | 59° |
| 2026-05-04 09:55 | 34.18885 | -82.29423 | 35106 ft | 504 kts | 59° |
| 2026-05-04 09:56 | 34.21884 | -82.21812 | 35104 ft | 504 kts | 59° |
| 2026-05-04 09:56 | 34.24915 | -82.14206 | 35113 ft | 501 kts | 55° |
| 2026-05-04 09:57 | 34.28521 | -82.07063 | 35111 ft | 499 kts | 52° |
| 2026-05-04 09:57 | 34.32130 | -81.99925 | 35101 ft | 499 kts | 53° |
| 2026-05-04 09:58 | 34.35731 | -81.92763 | 35103 ft | 498 kts | 52° |
| 2026-05-04 09:58 | 34.39317 | -81.85609 | 35106 ft | 499 kts | 52° |
| 2026-05-04 10:00 | 34.53677 | -81.56794 | 35111 ft | 499 kts | 53° |
| 2026-05-04 10:04 | 34.78428 | -81.06547 | 35104 ft | 498 kts | 55° |
| 2026-05-04 10:04 | 34.81401 | -80.98916 | 35106 ft | 503 kts | 60° |
| 2026-05-04 10:05 | 34.84272 | -80.91200 | 35105 ft | 503 kts | 60° |
| 2026-05-04 10:05 | 34.87138 | -80.83442 | 35107 ft | 505 kts | 60° |
| 2026-05-04 10:06 | 34.89988 | -80.75692 | 35105 ft | 504 kts | 60° |
| 2026-05-04 10:06 | 34.92841 | -80.67909 | 35103 ft | 504 kts | 60° |
| 2026-05-04 10:08 | 35.02741 | -80.40757 | 35108 ft | 505 kts | 61° |
| 2026-05-04 10:08 | 35.03220 | -80.39439 | 35109 ft | 505 kts | 61° |
| 2026-05-04 10:09 | 35.08276 | -80.25472 | 35104 ft | 505 kts | 61° |
| 2026-05-04 10:09 | 35.11086 | -80.17684 | 35107 ft | 504 kts | 61° |
| 2026-05-04 10:10 | 35.13877 | -80.09930 | 35108 ft | 504 kts | 62° |
| 2026-05-04 10:10 | 35.16683 | -80.02114 | 35110 ft | 504 kts | 61° |
| 2026-05-04 10:11 | 35.19461 | -79.94367 | 35111 ft | 504 kts | 61° |
| 2026-05-04 10:11 | 35.22271 | -79.86524 | 35106 ft | 506 kts | 61° |
| 2026-05-04 10:12 | 35.25045 | -79.78758 | 35108 ft | 505 kts | 62° |
| 2026-05-04 10:12 | 35.27835 | -79.70929 | 35102 ft | 506 kts | 62° |
| 2026-05-04 10:13 | 35.30717 | -79.63094 | 35119 ft | 508 kts | 62° |
| 2026-05-04 10:13 | 35.33450 | -79.55209 | 35111 ft | 506 kts | 62° |
| 2026-05-04 10:14 | 35.36183 | -79.47419 | 35118 ft | 507 kts | 62° |
| 2026-05-04 10:16 | 35.47203 | -79.16032 | 35117 ft | 511 kts | 63° |
| 2026-05-04 10:16 | 35.49972 | -79.08101 | 35107 ft | 509 kts | 63° |
| 2026-05-04 10:17 | 35.52734 | -79.00175 | 35100 ft | 511 kts | 63° |
| 2026-05-04 10:19 | 35.63873 | -78.68456 | 35112 ft | 509 kts | 59° |
| 2026-05-04 10:19 | 35.66860 | -78.60619 | 35109 ft | 512 kts | 62° |
| 2026-05-04 10:20 | 35.69649 | -78.52792 | 35113 ft | 512 kts | 63° |
| 2026-05-04 10:20 | 35.72415 | -78.44813 | 35113 ft | 514 kts | 63° |
| 2026-05-04 10:21 | 35.75131 | -78.36892 | 35115 ft | 514 kts | 64° |
| 2026-05-04 10:21 | 35.77882 | -78.28820 | 35108 ft | 515 kts | 64° |
| 2026-05-04 10:22 | 35.82011 | -78.16656 | 35086 ft | 523 kts | 64° |
| 2026-05-04 10:23 | 35.84795 | -78.08422 | 35092 ft | 525 kts | 65° |
| 2026-05-04 10:25 | 35.95976 | -77.75166 | 35102 ft | 528 kts | 63° |
| 2026-05-04 10:25 | 35.99804 | -77.67604 | 35121 ft | 519 kts | 45° |
| 2026-05-04 10:26 | 36.04606 | -77.60996 | 35107 ft | 519 kts | 43° |
| 2026-05-04 10:26 | 36.09478 | -77.54391 | 35108 ft | 519 kts | 43° |
| 2026-05-04 10:27 | 36.14153 | -77.48085 | 35112 ft | 519 kts | 43° |
| 2026-05-04 10:27 | 36.19091 | -77.41423 | 35099 ft | 518 kts | 43° |
| 2026-05-04 10:28 | 36.23860 | -77.34983 | 35101 ft | 519 kts | 43° |
| 2026-05-04 10:28 | 36.28677 | -77.28466 | 35093 ft | 518 kts | 43° |
| 2026-05-04 10:29 | 36.33545 | -77.22359 | 35097 ft | 516 kts | 37° |
| 2026-05-04 10:29 | 36.38933 | -77.16377 | 35088 ft | 518 kts | 37° |
| 2026-05-04 10:30 | 36.44194 | -77.10500 | 35115 ft | 519 kts | 37° |
| 2026-05-04 10:30 | 36.49540 | -77.04498 | 35085 ft | 517 kts | 37° |
| 2026-05-04 10:31 | 36.54866 | -76.98508 | 35090 ft | 518 kts | 37° |
| 2026-05-04 10:32 | 36.73174 | -76.76904 | 35109 ft | 519 kts | 38° |
| 2026-05-04 10:33 | 36.78499 | -76.70828 | 35111 ft | 522 kts | 38° |
| 2026-05-04 10:33 | 36.83844 | -76.64740 | 35106 ft | 520 kts | 38° |
| 2026-05-04 10:34 | 36.89135 | -76.58711 | 35100 ft | 522 kts | 38° |
| 2026-05-04 10:34 | 36.94511 | -76.52576 | 35105 ft | 523 kts | 38° |
| 2026-05-04 10:35 | 36.99880 | -76.46438 | 35108 ft | 523 kts | 38° |
| 2026-05-04 10:35 | 37.05225 | -76.40314 | 35105 ft | 525 kts | 38° |
| 2026-05-04 10:36 | 37.10492 | -76.34270 | 35101 ft | 526 kts | 38° |
| 2026-05-04 10:36 | 37.15652 | -76.28335 | 35093 ft | 525 kts | 38° |
| 2026-05-04 10:37 | 37.21022 | -76.22147 | 35088 ft | 528 kts | 38° |
| 2026-05-04 10:37 | 37.26409 | -76.15926 | 35087 ft | 526 kts | 38° |